sensor_id;sensor_type;location;lat;lon;timestamp;pressure;altitude;pressure_sealevel;temperature;humidity
22830;BME280;11581;51.250;6.778;2023-04-07T00:00:24;100918.41;;;10.30;95.37
22830;BME280;11581;51.250;6.778;2023-04-07T00:02:51;100974.06;;;10.61;95.38
22830;BME280;11581;51.250;6.778;2023-04-07T00:05:17;100936.34;;;10.47;95.29
22830;BME280;11581;51.250;6.778;2023-04-07T00:07:44;100982.66;;;10.65;95.23
22830;BME280;11581;51.250;6.778;2023-04-07T00:10:10;100968.31;;;10.66;95.41
22830;BME280;11581;51.250;6.778;2023-04-07T00:12:37;100974.22;;;10.69;95.34
22830;BME280;11581;51.250;6.778;2023-04-07T00:15:03;100946.00;;;10.57;95.41
22830;BME280;11581;51.250;6.778;2023-04-07T00:17:30;100960.59;;;10.63;95.32
22830;BME280;11581;51.250;6.778;2023-04-07T00:19:56;100956.53;;;10.68;95.22
22830;BME280;11581;51.250;6.778;2023-04-07T00:22:23;100973.50;;;10.77;95.54
22830;BME280;11581;51.250;6.778;2023-04-07T00:24:49;100981.22;;;10.80;95.29
22830;BME280;11581;51.250;6.778;2023-04-07T00:27:16;100966.03;;;10.80;95.58
22830;BME280;11581;51.250;6.778;2023-04-07T00:29:42;100968.56;;;10.82;95.48
22830;BME280;11581;51.250;6.778;2023-04-07T00:32:11;100967.47;;;10.84;95.36
22830;BME280;11581;51.250;6.778;2023-04-07T00:34:37;100969.13;;;10.85;95.25
22830;BME280;11581;51.250;6.778;2023-04-07T00:37:04;100968.84;;;10.88;95.29
22830;BME280;11581;51.250;6.778;2023-04-07T00:39:31;100907.13;;;10.45;95.03
22830;BME280;11581;51.250;6.778;2023-04-07T00:41:57;100924.53;;;10.68;95.17
22830;BME280;11581;51.250;6.778;2023-04-07T00:44:24;100963.59;;;10.96;95.39
22830;BME280;11581;51.250;6.778;2023-04-07T00:46:51;100966.00;;;10.99;95.33
22830;BME280;11581;51.250;6.778;2023-04-07T00:49:17;100949.44;;;10.96;95.41
22830;BME280;11581;51.250;6.778;2023-04-07T00:51:44;100961.75;;;11.06;95.45
22830;BME280;11581;51.250;6.778;2023-04-07T00:54:11;100938.47;;;10.99;94.88
22830;BME280;11581;51.250;6.778;2023-04-07T00:56:38;100921.34;;;10.92;95.34
22830;BME280;11581;51.250;6.778;2023-04-07T00:59:04;100955.25;;;11.18;95.27
22830;BME280;11581;51.250;6.778;2023-04-07T01:01:57;100956.94;;;11.19;95.38
22830;BME280;11581;51.250;6.778;2023-04-07T01:04:53;100953.81;;;11.24;95.50
22830;BME280;11581;51.250;6.778;2023-04-07T01:07:33;100954.38;;;11.27;95.32
22830;BME280;11581;51.250;6.778;2023-04-07T01:10:08;100822.66;;;10.55;94.79
22830;BME280;11581;51.250;6.778;2023-04-07T01:12:53;100919.59;;;11.10;94.77
22830;BME280;11581;51.250;6.778;2023-04-07T01:15:24;100950.72;;;11.28;94.66
22830;BME280;11581;51.250;6.778;2023-04-07T01:18:05;100931.53;;;11.15;94.53
22830;BME280;11581;51.250;6.778;2023-04-07T01:20:35;100949.88;;;11.28;94.69
22830;BME280;11581;51.250;6.778;2023-04-07T01:23:05;100950.72;;;11.28;94.68
22830;BME280;11581;51.250;6.778;2023-04-07T01:31:28;100947.31;;;11.36;96.44
22830;BME280;11581;51.250;6.778;2023-04-07T01:33:58;100937.91;;;11.32;95.10
22830;BME280;11581;51.250;6.778;2023-04-07T01:36:27;100912.84;;;11.15;94.83
22830;BME280;11581;51.250;6.778;2023-04-07T01:38:55;100804.94;;;10.54;94.83
22830;BME280;11581;51.250;6.778;2023-04-07T01:41:24;100948.84;;;11.38;94.77
22830;BME280;11581;51.250;6.778;2023-04-07T01:43:52;100939.84;;;11.40;94.83
22830;BME280;11581;51.250;6.778;2023-04-07T01:46:20;100921.34;;;11.28;94.85
22830;BME280;11581;51.250;6.778;2023-04-07T01:48:47;100948.41;;;11.43;94.94
22830;BME280;11581;51.250;6.778;2023-04-07T01:51:15;100946.44;;;11.45;94.94
22830;BME280;11581;51.250;6.778;2023-04-07T01:53:44;100892.34;;;11.06;95.01
22830;BME280;11581;51.250;6.778;2023-04-07T01:56:11;100951.03;;;11.53;94.94
22830;BME280;11581;51.250;6.778;2023-04-07T01:58:37;100942.16;;;11.52;94.90
22830;BME280;11581;51.250;6.778;2023-04-07T02:01:06;100949.75;;;11.57;94.79
22830;BME280;11581;51.250;6.778;2023-04-07T02:03:45;100946.06;;;11.58;94.71
22830;BME280;11581;51.250;6.778;2023-04-07T02:06:18;100941.44;;;11.60;94.65
22830;BME280;11581;51.250;6.778;2023-04-07T02:08:50;100946.78;;;11.60;94.62
22830;BME280;11581;51.250;6.778;2023-04-07T02:11:20;100947.47;;;11.62;94.54
22830;BME280;11581;51.250;6.778;2023-04-07T02:13:52;100938.50;;;11.63;94.48
22830;BME280;11581;51.250;6.778;2023-04-07T02:16:21;100940.16;;;11.64;94.48
22830;BME280;11581;51.250;6.778;2023-04-07T02:18:48;100944.50;;;11.65;94.40
22830;BME280;11581;51.250;6.778;2023-04-07T02:21:15;100959.56;;;11.66;94.44
22830;BME280;11581;51.250;6.778;2023-04-07T02:23:43;100931.44;;;11.62;94.50
22830;BME280;11581;51.250;6.778;2023-04-07T02:26:11;100944.06;;;11.69;94.39
22830;BME280;11581;51.250;6.778;2023-04-07T02:28:37;100907.91;;;11.48;94.52
22830;BME280;11581;51.250;6.778;2023-04-07T02:31:04;100892.75;;;11.38;94.39
22830;BME280;11581;51.250;6.778;2023-04-07T02:33:31;100951.63;;;11.74;94.50
22830;BME280;11581;51.250;6.778;2023-04-07T02:35:57;100951.63;;;11.74;94.82
22830;BME280;11581;51.250;6.778;2023-04-07T02:38:24;100942.63;;;11.75;94.39
22830;BME280;11581;51.250;6.778;2023-04-07T02:40:50;100849.47;;;11.17;94.18
22830;BME280;11581;51.250;6.778;2023-04-07T02:43:18;100953.31;;;11.75;94.11
22830;BME280;11581;51.250;6.778;2023-04-07T02:45:45;100935.69;;;11.64;93.95
22830;BME280;11581;51.250;6.778;2023-04-07T02:48:11;100927.38;;;11.58;94.01
22830;BME280;11581;51.250;6.778;2023-04-07T02:50:38;100955.00;;;11.76;94.05
22830;BME280;11581;51.250;6.778;2023-04-07T02:53:05;100915.53;;;11.43;94.08
22830;BME280;11581;51.250;6.778;2023-04-07T02:55:32;100956.69;;;11.77;93.96
22830;BME280;11581;51.250;6.778;2023-04-07T02:57:59;100959.34;;;11.77;94.04
22830;BME280;11581;51.250;6.778;2023-04-07T03:00:47;100956.69;;;11.77;93.88
22830;BME280;11581;51.250;6.778;2023-04-07T03:03:18;100960.19;;;11.77;94.02
22830;BME280;11581;51.250;6.778;2023-04-07T03:05:57;100963.69;;;11.78;93.83
22830;BME280;11581;51.250;6.778;2023-04-07T03:08:23;100872.34;;;11.20;93.49
22830;BME280;11581;51.250;6.778;2023-04-07T03:10:50;100963.03;;;11.76;93.82
22830;BME280;11581;51.250;6.778;2023-04-07T03:13:23;100965.69;;;11.76;93.44
22830;BME280;11581;51.250;6.778;2023-04-07T03:15:49;100954.91;;;11.68;93.50
22830;BME280;11581;51.250;6.778;2023-04-07T03:18:17;100961.66;;;11.72;93.29
22830;BME280;11581;51.250;6.778;2023-04-07T03:20:44;100953.22;;;11.67;93.32
22830;BME280;11581;51.250;6.778;2023-04-07T03:23:11;100972.34;;;11.72;93.28
22830;BME280;11581;51.250;6.778;2023-04-07T03:25:38;100964.31;;;11.72;93.26
22830;BME280;11581;51.250;6.778;2023-04-07T03:28:05;100958.13;;;11.71;93.50
22830;BME280;11581;51.250;6.778;2023-04-07T03:30:36;100965.28;;;11.71;93.11
22830;BME280;11581;51.250;6.778;2023-04-07T03:33:02;100972.63;;;11.69;93.00
22830;BME280;11581;51.250;6.778;2023-04-07T03:35:30;100970.94;;;11.68;92.59
22830;BME280;11581;51.250;6.778;2023-04-07T03:37:56;100937.47;;;11.37;92.73
22830;BME280;11581;51.250;6.778;2023-04-07T03:40:24;100927.63;;;11.37;92.65
22830;BME280;11581;51.250;6.778;2023-04-07T03:42:51;100938.28;;;11.47;92.84
22830;BME280;11581;51.250;6.778;2023-04-07T03:45:17;100969.81;;;11.61;92.72
22830;BME280;11581;51.250;6.778;2023-04-07T03:47:48;100976.16;;;11.60;92.93
22830;BME280;11581;51.250;6.778;2023-04-07T03:50:16;100969.81;;;11.61;92.94
22830;BME280;11581;51.250;6.778;2023-04-07T03:53:08;100975.03;;;11.62;93.06
22830;BME280;11581;51.250;6.778;2023-04-07T03:55:35;100959.44;;;11.58;93.12
22830;BME280;11581;51.250;6.778;2023-04-07T03:58:09;100941.38;;;11.42;93.13
22830;BME280;11581;51.250;6.778;2023-04-07T04:00:36;100973.22;;;11.63;93.07
22830;BME280;11581;51.250;6.778;2023-04-07T04:03:07;100950.63;;;11.48;92.93
22830;BME280;11581;51.250;6.778;2023-04-07T04:05:37;100970.81;;;11.60;92.97
22830;BME280;11581;51.250;6.778;2023-04-07T04:08:05;100982.91;;;11.64;92.93
22830;BME280;11581;51.250;6.778;2023-04-07T04:10:35;100982.06;;;11.63;92.88
22830;BME280;11581;51.250;6.778;2023-04-07T04:13:01;100984.88;;;11.62;92.63
22830;BME280;11581;51.250;6.778;2023-04-07T04:15:31;100995.56;;;11.62;92.60
22830;BME280;11581;51.250;6.778;2023-04-07T04:17:59;100993.00;;;11.60;92.76
22830;BME280;11581;51.250;6.778;2023-04-07T04:20:26;100992.03;;;11.61;92.69
22830;BME280;11581;51.250;6.778;2023-04-07T04:22:52;100993.84;;;11.61;92.53
22830;BME280;11581;51.250;6.778;2023-04-07T04:25:20;100992.28;;;11.41;92.32
22830;BME280;11581;51.250;6.778;2023-04-07T04:27:50;100885.19;;;10.80;92.21
22830;BME280;11581;51.250;6.778;2023-04-07T04:30:23;100917.38;;;11.05;92.21
22830;BME280;11581;51.250;6.778;2023-04-07T04:32:53;101006.50;;;11.59;92.33
22830;BME280;11581;51.250;6.778;2023-04-07T04:35:27;100925.78;;;11.10;92.09
22830;BME280;11581;51.250;6.778;2023-04-07T04:38:04;100966.44;;;11.31;92.06
22830;BME280;11581;51.250;6.778;2023-04-07T04:40:31;101000.09;;;11.52;92.00
22830;BME280;11581;51.250;6.778;2023-04-07T04:43:00;101010.31;;;11.56;91.99
22830;BME280;11581;51.250;6.778;2023-04-07T04:45:32;101013.00;;;11.56;91.95
22830;BME280;11581;51.250;6.778;2023-04-07T04:48:00;101015.81;;;11.55;91.69
22830;BME280;11581;51.250;6.778;2023-04-07T04:50:26;101014.16;;;11.54;91.47
22830;BME280;11581;51.250;6.778;2023-04-07T04:52:54;101010.75;;;11.52;91.70
22830;BME280;11581;51.250;6.778;2023-04-07T04:55:22;101030.47;;;11.51;91.56
22830;BME280;11581;51.250;6.778;2023-04-07T04:57:50;101019.78;;;11.51;91.52
22830;BME280;11581;51.250;6.778;2023-04-07T05:00:24;101027.09;;;11.49;91.48
22830;BME280;11581;51.250;6.778;2023-04-07T05:02:56;100912.97;;;10.77;91.41
22830;BME280;11581;51.250;6.778;2023-04-07T05:05:23;101023.72;;;11.47;91.32
22830;BME280;11581;51.250;6.778;2023-04-07T05:07:51;101023.72;;;11.47;91.54
22830;BME280;11581;51.250;6.778;2023-04-07T05:10:19;101026.25;;;11.48;91.62
22830;BME280;11581;51.250;6.778;2023-04-07T05:12:48;101037.63;;;11.50;91.99
22830;BME280;11581;51.250;6.778;2023-04-07T05:15:15;100898.25;;;10.73;91.77
22830;BME280;11581;51.250;6.778;2023-04-07T05:17:45;100549.63;;;8.45;91.23
22830;BME280;11581;51.250;6.778;2023-04-07T05:20:17;101031.16;;;11.53;91.66
22830;BME280;11581;51.250;6.778;2023-04-07T05:22:44;100878.06;;;10.61;91.85
22830;BME280;11581;51.250;6.778;2023-04-07T05:25:12;101036.22;;;11.56;91.66
22830;BME280;11581;51.250;6.778;2023-04-07T05:27:41;101034.38;;;11.56;91.70
22830;BME280;11581;51.250;6.778;2023-04-07T05:30:12;101038.56;;;11.59;91.63
22830;BME280;11581;51.250;6.778;2023-04-07T05:32:39;101007.28;;;11.42;91.52
22830;BME280;11581;51.250;6.778;2023-04-07T05:35:14;101036.59;;;11.61;91.27
22830;BME280;11581;51.250;6.778;2023-04-07T05:37:48;101041.94;;;11.61;91.13
22830;BME280;11581;51.250;6.778;2023-04-07T05:40:15;101051.78;;;11.60;90.72
22830;BME280;11581;51.250;6.778;2023-04-07T05:42:43;101026.56;;;11.45;90.51
22830;BME280;11581;51.250;6.778;2023-04-07T05:45:09;101060.78;;;11.59;90.30
22830;BME280;11581;51.250;6.778;2023-04-07T05:47:39;101054.06;;;11.55;90.26
22830;BME280;11581;51.250;6.778;2023-04-07T05:50:08;101042.88;;;11.42;90.20
22830;BME280;11581;51.250;6.778;2023-04-07T05:52:36;101057.88;;;11.53;90.23
22830;BME280;11581;51.250;6.778;2023-04-07T05:55:15;101059.69;;;11.52;90.13
22830;BME280;11581;51.250;6.778;2023-04-07T05:57:42;101069.53;;;11.52;89.91
22830;BME280;11581;51.250;6.778;2023-04-07T06:00:09;101067.84;;;11.51;90.08
22830;BME280;11581;51.250;6.778;2023-04-07T06:02:39;100992.28;;;10.94;90.15
22830;BME280;11581;51.250;6.778;2023-04-07T06:05:11;101074.19;;;11.50;90.11
22830;BME280;11581;51.250;6.778;2023-04-07T06:07:39;101075.16;;;11.49;89.97
22830;BME280;11581;51.250;6.778;2023-04-07T06:10:07;101078.81;;;11.48;90.07
22830;BME280;11581;51.250;6.778;2023-04-07T06:12:33;101077.97;;;11.47;89.94
22830;BME280;11581;51.250;6.778;2023-04-07T06:15:00;100906.03;;;10.48;89.79
22830;BME280;11581;51.250;6.778;2023-04-07T06:17:26;100999.00;;;10.98;89.91
22830;BME280;11581;51.250;6.778;2023-04-07T06:19:53;101046.59;;;11.22;89.76
22830;BME280;11581;51.250;6.778;2023-04-07T06:22:19;100997.47;;;10.96;89.99
22830;BME280;11581;51.250;6.778;2023-04-07T06:24:46;101066.63;;;11.35;89.82
22830;BME280;11581;51.250;6.778;2023-04-07T06:27:12;101082.06;;;11.42;90.02
22830;BME280;11581;51.250;6.778;2023-04-07T06:29:39;101091.19;;;11.49;89.80
22830;BME280;11581;51.250;6.778;2023-04-07T06:32:05;101082.78;;;11.44;89.76
22830;BME280;11581;51.250;6.778;2023-04-07T06:34:32;101094.41;;;11.52;89.94
22830;BME280;11581;51.250;6.778;2023-04-07T06:36:58;101101.28;;;11.55;89.80
22830;BME280;11581;51.250;6.778;2023-04-07T06:39:26;101097.66;;;11.56;89.77
22830;BME280;11581;51.250;6.778;2023-04-07T06:41:52;101094.00;;;11.57;89.58
22830;BME280;11581;51.250;6.778;2023-04-07T06:44:19;101096.53;;;11.58;89.63
22830;BME280;11581;51.250;6.778;2023-04-07T06:46:45;101100.59;;;11.62;89.65
22830;BME280;11581;51.250;6.778;2023-04-07T06:49:14;101100.47;;;11.64;89.65
22830;BME280;11581;51.250;6.778;2023-04-07T06:51:41;101109.88;;;11.68;89.55
22830;BME280;11581;51.250;6.778;2023-04-07T06:54:07;101109.44;;;11.72;89.54
22830;BME280;11581;51.250;6.778;2023-04-07T06:56:37;101113.63;;;11.75;89.42
22830;BME280;11581;51.250;6.778;2023-04-07T06:59:03;101039.53;;;11.21;89.46
22830;BME280;11581;51.250;6.778;2023-04-07T07:01:30;101109.69;;;11.79;89.06
22830;BME280;11581;51.250;6.778;2023-04-07T07:03:56;101102.56;;;11.70;88.98
22830;BME280;11581;51.250;6.778;2023-04-07T07:06:24;101111.38;;;11.80;88.61
22830;BME280;11581;51.250;6.778;2023-04-07T07:08:52;101016.19;;;11.32;88.71
22830;BME280;11581;51.250;6.778;2023-04-07T07:11:18;101123.44;;;11.93;88.45
22830;BME280;11581;51.250;6.778;2023-04-07T07:13:45;101129.28;;;11.97;88.37
22830;BME280;11581;51.250;6.778;2023-04-07T07:16:12;101121.97;;;11.99;88.17
22830;BME280;11581;51.250;6.778;2023-04-07T07:18:38;101129.00;;;12.00;87.72
22830;BME280;11581;51.250;6.778;2023-04-07T07:21:05;101131.53;;;12.01;87.62
22830;BME280;11581;51.250;6.778;2023-04-07T07:23:32;101129.72;;;12.02;87.29
22830;BME280;11581;51.250;6.778;2023-04-07T07:25:59;101131.38;;;12.03;87.16
22830;BME280;11581;51.250;6.778;2023-04-07T07:28:25;101118.59;;;11.97;87.09
22830;BME280;11581;51.250;6.778;2023-04-07T07:30:53;101082.56;;;11.74;86.95
22830;BME280;11581;51.250;6.778;2023-04-07T07:33:20;101137.81;;;12.10;86.83
22830;BME280;11581;51.250;6.778;2023-04-07T07:35:47;101142.19;;;12.11;86.88
22830;BME280;11581;51.250;6.778;2023-04-07T07:38:13;101133.78;;;12.06;86.65
22830;BME280;11581;51.250;6.778;2023-04-07T07:40:40;101147.09;;;12.15;86.51
22830;BME280;11581;51.250;6.778;2023-04-07T07:43:06;101152.31;;;12.17;86.27
22830;BME280;11581;51.250;6.778;2023-04-07T07:45:33;101150.31;;;12.19;86.03
22830;BME280;11581;51.250;6.778;2023-04-07T07:47:59;101153.69;;;12.21;86.24
22830;BME280;11581;51.250;6.778;2023-04-07T07:50:26;101063.63;;;11.67;85.80
22830;BME280;11581;51.250;6.778;2023-04-07T07:52:52;101133.81;;;11.96;85.92
22830;BME280;11581;51.250;6.778;2023-04-07T07:55:19;101158.44;;;12.27;85.78
22830;BME280;11581;51.250;6.778;2023-04-07T07:57:45;101164.47;;;12.29;85.59
22830;BME280;11581;51.250;6.778;2023-04-07T08:00:12;101167.84;;;12.31;85.58
22830;BME280;11581;51.250;6.778;2023-04-07T08:02:39;101160.50;;;12.33;85.57
22830;BME280;11581;51.250;6.778;2023-04-07T08:05:05;101167.41;;;12.35;85.39
22830;BME280;11581;51.250;6.778;2023-04-07T08:07:32;101164.59;;;12.37;85.37
22830;BME280;11581;51.250;6.778;2023-04-07T08:09:58;101173.28;;;12.39;85.52
22830;BME280;11581;51.250;6.778;2023-04-07T08:12:25;101175.81;;;12.40;85.35
22830;BME280;11581;51.250;6.778;2023-04-07T08:14:51;101176.53;;;12.42;85.37
22830;BME280;11581;51.250;6.778;2023-04-07T08:17:18;101172.69;;;12.45;85.94
22830;BME280;11581;51.250;6.778;2023-04-07T08:19:44;101078.72;;;11.86;85.49
22830;BME280;11581;51.250;6.778;2023-04-07T08:22:11;101119.53;;;12.15;85.37
22830;BME280;11581;51.250;6.778;2023-04-07T08:24:37;101183.22;;;12.56;85.36
22830;BME280;11581;51.250;6.778;2023-04-07T08:27:04;101182.91;;;12.59;85.44
22830;BME280;11581;51.250;6.778;2023-04-07T08:29:30;101187.94;;;12.62;85.13
22830;BME280;11581;51.250;6.778;2023-04-07T08:31:57;101194.00;;;12.64;85.12
22830;BME280;11581;51.250;6.778;2023-04-07T08:34:23;101192.03;;;12.66;85.11
22830;BME280;11581;51.250;6.778;2023-04-07T08:36:50;101134.47;;;12.35;84.83
22830;BME280;11581;51.250;6.778;2023-04-07T08:39:17;101195.78;;;12.73;84.77
22830;BME280;11581;51.250;6.778;2023-04-07T08:41:44;101202.81;;;12.74;84.61
22830;BME280;11581;51.250;6.778;2023-04-07T08:44:13;101140.41;;;12.29;84.27
22830;BME280;11581;51.250;6.778;2023-04-07T08:46:40;101138.44;;;12.31;84.10
22830;BME280;11581;51.250;6.778;2023-04-07T08:49:09;101220.94;;;12.80;84.23
22830;BME280;11581;51.250;6.778;2023-04-07T08:51:44;101211.09;;;12.80;83.40
22830;BME280;11581;51.250;6.778;2023-04-07T08:54:17;101114.41;;;12.21;83.13
22830;BME280;11581;51.250;6.778;2023-04-07T08:56:46;101216.00;;;12.85;83.94
22830;BME280;11581;51.250;6.778;2023-04-07T08:59:14;101218.81;;;12.83;83.83
22830;BME280;11581;51.250;6.778;2023-04-07T09:01:42;101165.44;;;12.55;83.80
22830;BME280;11581;51.250;6.778;2023-04-07T09:04:09;101216.97;;;12.84;83.82
22830;BME280;11581;51.250;6.778;2023-04-07T09:06:36;101213.47;;;12.83;83.53
22830;BME280;11581;51.250;6.778;2023-04-07T09:09:03;101219.78;;;12.82;83.49
22830;BME280;11581;51.250;6.778;2023-04-07T09:11:34;101168.63;;;12.41;82.67
22830;BME280;11581;51.250;6.778;2023-04-07T09:14:01;101218.41;;;12.78;83.35
22830;BME280;11581;51.250;6.778;2023-04-07T09:16:28;101223.91;;;12.77;83.36
22830;BME280;11581;51.250;6.778;2023-04-07T09:18:55;101113.22;;;12.06;83.16
22830;BME280;11581;51.250;6.778;2023-04-07T09:21:22;101198.84;;;12.51;83.22
22830;BME280;11581;51.250;6.778;2023-04-07T09:23:49;101235.22;;;12.71;83.16
22830;BME280;11581;51.250;6.778;2023-04-07T09:28:46;101221.91;;;12.61;83.24
22830;BME280;11581;51.250;6.778;2023-04-07T09:31:13;101234.84;;;12.66;83.43
22830;BME280;11581;51.250;6.778;2023-04-07T09:33:40;101230.06;;;12.60;83.58
22830;BME280;11581;51.250;6.778;2023-04-07T09:36:07;101224.72;;;12.60;83.64
22830;BME280;11581;51.250;6.778;2023-04-07T09:38:38;101233.97;;;12.65;83.32
22830;BME280;11581;51.250;6.778;2023-04-07T09:41:13;101238.19;;;12.68;83.21
22830;BME280;11581;51.250;6.778;2023-04-07T09:43:45;101237.88;;;12.71;84.08
22830;BME280;11581;51.250;6.778;2023-04-07T09:46:17;101237.44;;;12.75;83.21
22830;BME280;11581;51.250;6.778;2023-04-07T09:48:45;101242.34;;;12.80;84.24
22830;BME280;11581;51.250;6.778;2023-04-07T09:51:14;101245.44;;;12.85;84.25
22830;BME280;11581;51.250;6.778;2023-04-07T09:53:49;101239.63;;;12.89;82.63
22830;BME280;11581;51.250;6.778;2023-04-07T09:56:19;101244.50;;;12.94;83.86
22830;BME280;11581;51.250;6.778;2023-04-07T09:58:49;101247.63;;;12.99;83.66
22830;BME280;11581;51.250;6.778;2023-04-07T10:01:19;101199.97;;;12.75;83.17
22830;BME280;11581;51.250;6.778;2023-04-07T10:03:46;101227.06;;;12.90;83.63
22830;BME280;11581;51.250;6.778;2023-04-07T10:06:15;101247.25;;;13.11;83.35
22830;BME280;11581;51.250;6.778;2023-04-07T10:08:42;101249.47;;;13.16;82.94
22830;BME280;11581;51.250;6.778;2023-04-07T10:11:09;101241.97;;;13.19;83.01
22830;BME280;11581;51.250;6.778;2023-04-07T10:13:38;101245.19;;;13.23;81.84
22830;BME280;11581;51.250;6.778;2023-04-07T10:16:06;101249.25;;;13.27;82.40
22830;BME280;11581;51.250;6.778;2023-04-07T10:18:34;101247.25;;;13.29;81.94
22830;BME280;11581;51.250;6.778;2023-04-07T10:21:03;101250.63;;;13.31;81.40
22830;BME280;11581;51.250;6.778;2023-04-07T10:26:18;101253.00;;;13.34;80.80
22830;BME280;11581;51.250;6.778;2023-04-07T10:28:50;101261.72;;;13.36;80.28
22830;BME280;11581;51.250;6.778;2023-04-07T10:31:19;101257.22;;;13.36;81.00
22830;BME280;11581;51.250;6.778;2023-04-07T10:33:50;101265.09;;;13.38;79.30
22830;BME280;11581;51.250;6.778;2023-04-07T10:36:18;101257.75;;;13.40;80.72
22830;BME280;11581;51.250;6.778;2023-04-07T10:41:38;101263.13;;;13.40;79.23
22830;BME280;11581;51.250;6.778;2023-04-07T10:44:06;101259.44;;;13.41;80.94
22830;BME280;11581;51.250;6.778;2023-04-07T10:47:01;101273.53;;;13.43;78.56
22830;BME280;11581;51.250;6.778;2023-04-07T10:49:29;101268.53;;;13.48;81.56
22830;BME280;11581;51.250;6.778;2023-04-07T10:54:38;101270.59;;;13.54;81.15
22830;BME280;11581;51.250;6.778;2023-04-07T10:57:09;101244.81;;;13.35;79.35
22830;BME280;11581;51.250;6.778;2023-04-07T10:59:39;101277.19;;;13.60;80.95
22830;BME280;11581;51.250;6.778;2023-04-07T11:04:42;101143.41;;;12.88;81.78
22830;BME280;11581;51.250;6.778;2023-04-07T11:07:10;101281.06;;;13.83;81.99
22830;BME280;11581;51.250;6.778;2023-04-07T11:09:36;101246.16;;;13.75;82.41
22830;BME280;11581;51.250;6.778;2023-04-07T11:12:03;101277.88;;;14.05;82.20
22830;BME280;11581;51.250;6.778;2023-04-07T11:14:31;101280.16;;;14.17;82.28
22830;BME280;11581;51.250;6.778;2023-04-07T11:16:59;101291.19;;;14.32;82.32
22830;BME280;11581;51.250;6.778;2023-04-07T11:19:25;101283.53;;;14.45;81.91
22830;BME280;11581;51.250;6.778;2023-04-07T11:22:15;101289.31;;;14.58;76.83
22830;BME280;11581;51.250;6.778;2023-04-07T11:24:41;101268.66;;;14.58;81.45
22830;BME280;11581;51.250;6.778;2023-04-07T11:27:12;101259.25;;;14.54;78.63
22830;BME280;11581;51.250;6.778;2023-04-07T11:29:39;101279.19;;;14.85;80.60
22830;BME280;11581;51.250;6.778;2023-04-07T11:32:05;101259.69;;;14.75;80.19
22830;BME280;11581;51.250;6.778;2023-04-07T11:34:34;101243.59;;;14.75;80.26
22830;BME280;11581;51.250;6.778;2023-04-07T11:37:20;101291.34;;;15.13;75.27
22830;BME280;11581;51.250;6.778;2023-04-07T11:39:53;101223.94;;;14.75;75.89
22830;BME280;11581;51.250;6.778;2023-04-07T11:42:37;101282.63;;;15.11;74.78
22830;BME280;11581;51.250;6.778;2023-04-07T11:45:14;101270.19;;;15.10;78.53
22830;BME280;11581;51.250;6.778;2023-04-07T11:47:41;101309.22;;;15.30;78.38
22830;BME280;11581;51.250;6.778;2023-04-07T11:50:08;101307.34;;;15.31;78.18
22830;BME280;11581;51.250;6.778;2023-04-07T11:52:46;101287.69;;;15.14;74.19
22830;BME280;11581;51.250;6.778;2023-04-07T11:55:22;101316.25;;;15.31;73.69
22830;BME280;11581;51.250;6.778;2023-04-07T11:57:49;101317.94;;;15.32;77.72
22830;BME280;11581;51.250;6.778;2023-04-07T12:00:16;101288.00;;;15.11;77.32
22830;BME280;11581;51.250;6.778;2023-04-07T12:02:43;101292.69;;;15.09;76.79
22830;BME280;11581;51.250;6.778;2023-04-07T12:05:09;101317.88;;;15.16;76.45
22830;BME280;11581;51.250;6.778;2023-04-07T12:07:37;101325.78;;;15.18;76.60
22830;BME280;11581;51.250;6.778;2023-04-07T12:10:20;101323.59;;;15.13;71.83
22830;BME280;11581;51.250;6.778;2023-04-07T12:12:47;101333.84;;;15.10;76.42
22830;BME280;11581;51.250;6.778;2023-04-07T12:15:14;101312.59;;;14.91;76.61
22830;BME280;11581;51.250;6.778;2023-04-07T12:17:44;101283.47;;;14.70;74.85
22830;BME280;11581;51.250;6.778;2023-04-07T12:20:12;101325.88;;;14.92;77.18
22830;BME280;11581;51.250;6.778;2023-04-07T12:22:39;101330.59;;;14.98;77.55
22830;BME280;11581;51.250;6.778;2023-04-07T12:25:06;101335.13;;;14.98;77.94
22830;BME280;11581;51.250;6.778;2023-04-07T12:27:32;101319.66;;;14.92;78.37
22830;BME280;11581;51.250;6.778;2023-04-07T12:29:59;101343.25;;;15.06;78.58
22830;BME280;11581;51.250;6.778;2023-04-07T12:32:25;101324.91;;;15.01;78.71
22830;BME280;11581;51.250;6.778;2023-04-07T12:34:53;101325.25;;;15.06;79.02
22830;BME280;11581;51.250;6.778;2023-04-07T12:37:19;101326.97;;;15.15;78.61
22830;BME280;11581;51.250;6.778;2023-04-07T12:39:46;101282.38;;;14.89;78.19
22830;BME280;11581;51.250;6.778;2023-04-07T12:42:12;101345.50;;;15.34;77.67
22830;BME280;11581;51.250;6.778;2023-04-07T12:44:39;101356.66;;;15.39;78.11
22830;BME280;11581;51.250;6.778;2023-04-07T12:47:05;101358.00;;;15.43;78.26
22830;BME280;11581;51.250;6.778;2023-04-07T12:49:32;101356.50;;;15.49;77.69
22830;BME280;11581;51.250;6.778;2023-04-07T12:51:58;101328.06;;;15.38;77.11
22830;BME280;11581;51.250;6.778;2023-04-07T12:54:25;101341.00;;;15.43;76.36
22830;BME280;11581;51.250;6.778;2023-04-07T12:56:53;101360.38;;;15.54;76.07
22830;BME280;11581;51.250;6.778;2023-04-07T12:59:21;101362.41;;;15.52;76.01
22830;BME280;11581;51.250;6.778;2023-04-07T13:01:48;101361.88;;;15.49;75.63
22830;BME280;11581;51.250;6.778;2023-04-07T13:04:15;101351.28;;;15.39;75.67
22830;BME280;11581;51.250;6.778;2023-04-07T13:06:42;101335.41;;;15.28;75.92
22830;BME280;11581;51.250;6.778;2023-04-07T13:09:08;101352.78;;;15.42;76.08
22830;BME280;11581;51.250;6.778;2023-04-07T13:11:35;101358.16;;;15.42;76.20
22830;BME280;11581;51.250;6.778;2023-04-07T13:14:01;101351.75;;;15.43;76.60
22830;BME280;11581;51.250;6.778;2023-04-07T13:16:28;101358.16;;;15.42;76.65